createdAt,value
2023-03-04T00:02:21.228Z,18.20
2023-03-04T00:04:47.972Z,19.05
2023-03-04T00:07:18.825Z,19.73
2023-03-04T00:09:46.480Z,19.67
2023-03-04T00:12:13.830Z,20.52
2023-03-04T00:14:41.176Z,19.85
2023-03-04T00:17:08.278Z,20.77
2023-03-04T00:19:35.547Z,19.73
2023-03-04T00:22:03.981Z,19.27
2023-03-04T00:24:31.548Z,20.30
2023-03-04T00:26:58.265Z,20.10
2023-03-04T00:29:25.054Z,20.42
2023-03-04T00:31:51.925Z,20.02
2023-03-04T00:34:18.762Z,19.40
2023-03-04T00:36:45.609Z,19.35
2023-03-04T00:39:13.085Z,19.48
2023-03-04T00:41:39.984Z,19.98
2023-03-04T00:44:06.837Z,20.30
2023-03-04T00:46:33.519Z,18.70
2023-03-04T00:49:00.137Z,19.95
2023-03-04T00:51:26.820Z,20.27
2023-03-04T00:53:53.541Z,20.77
2023-03-04T00:56:20.348Z,20.35
2023-03-04T00:58:47.072Z,19.23
2023-03-04T01:01:13.898Z,20.30
2023-03-04T01:03:41.471Z,20.52
2023-03-04T01:06:08.678Z,19.35
2023-03-04T01:08:35.659Z,20.38
2023-03-04T01:11:02.481Z,19.60
2023-03-04T01:13:29.249Z,19.90
2023-03-04T01:15:56.138Z,20.13
2023-03-04T01:18:23.094Z,20.88
2023-03-04T01:20:50.556Z,18.67
2023-03-04T01:23:17.398Z,20.25
2023-03-04T01:25:44.085Z,20.10
2023-03-04T01:28:11.380Z,20.25
2023-03-04T01:30:38.220Z,20.40
2023-03-04T01:33:04.945Z,19.58
2023-03-04T01:35:31.707Z,20.15
2023-03-04T01:37:58.520Z,19.65
2023-03-04T01:40:25.471Z,20.25
2023-03-04T01:42:52.225Z,21.50
2023-03-04T01:45:20.134Z,21.20
2023-03-04T01:47:49.073Z,21.65
2023-03-04T01:50:32.809Z,21.02
2023-03-04T01:53:00.007Z,20.63
2023-03-04T01:55:27.270Z,21.15
2023-03-04T01:57:54.096Z,20.63
2023-03-04T02:00:28.962Z,21.95
2023-03-04T02:03:00.003Z,20.27
2023-03-04T02:05:27.709Z,21.95
2023-03-04T02:07:56.036Z,20.05
2023-03-04T02:10:23.183Z,20.20
2023-03-04T02:12:50.828Z,21.10
2023-03-04T02:15:17.831Z,22.02
2023-03-04T02:17:44.819Z,20.52
2023-03-04T02:20:14.398Z,21.23
2023-03-04T02:23:03.959Z,19.77
2023-03-04T02:25:46.238Z,21.63
2023-03-04T02:28:13.337Z,21.73
2023-03-04T02:30:40.121Z,20.95
2023-03-04T02:33:10.390Z,21.85
2023-03-04T02:35:37.174Z,22.58
2023-03-04T02:38:03.890Z,21.48
2023-03-04T02:40:33.168Z,22.13
2023-03-04T02:43:00.864Z,22.00
2023-03-04T02:45:51.397Z,20.42
2023-03-04T02:48:21.294Z,23.15
2023-03-04T02:50:52.298Z,21.52
2023-03-04T02:53:20.828Z,20.40
2023-03-04T02:55:48.321Z,21.77
2023-03-04T02:58:15.252Z,21.45
2023-03-04T03:00:42.725Z,22.25
2023-03-04T03:03:09.744Z,22.05
2023-03-04T03:05:38.031Z,21.10
2023-03-04T03:08:05.164Z,21.98
2023-03-04T03:10:32.275Z,22.60
2023-03-04T03:12:59.014Z,21.10
2023-03-04T03:15:25.775Z,23.58
2023-03-04T03:17:52.875Z,21.27
2023-03-04T03:20:20.446Z,22.10
2023-03-04T03:22:47.455Z,21.77
2023-03-04T03:25:15.409Z,21.77
2023-03-04T03:27:42.899Z,22.67
2023-03-04T03:30:12.516Z,21.10
2023-03-04T03:32:39.336Z,21.48
2023-03-04T03:35:06.329Z,23.20
2023-03-04T03:37:33.350Z,22.15
2023-03-04T03:40:00.164Z,21.75
2023-03-04T03:42:27.098Z,23.10
2023-03-04T03:44:53.893Z,23.00
2023-03-04T03:47:20.652Z,22.58
2023-03-04T03:49:47.415Z,22.48
2023-03-04T03:52:14.241Z,22.88
2023-03-04T03:54:41.079Z,23.45
2023-03-04T03:57:07.748Z,23.27
2023-03-04T03:59:34.405Z,23.08
2023-03-04T04:02:01.317Z,22.70
2023-03-04T04:04:28.112Z,21.50
2023-03-04T04:06:54.902Z,23.92
2023-03-04T04:09:21.689Z,21.88
2023-03-04T04:11:48.421Z,23.17
2023-03-04T04:14:15.184Z,23.15
2023-03-04T04:16:42.203Z,21.83
2023-03-04T04:19:16.236Z,22.20
2023-03-04T04:21:42.896Z,22.85
2023-03-04T04:24:09.684Z,21.85
2023-03-04T04:26:36.412Z,22.10
2023-03-04T04:29:03.115Z,22.60
2023-03-04T04:31:29.819Z,24.20
2023-03-04T04:33:56.544Z,22.90
2023-03-04T04:36:23.182Z,22.70
2023-03-04T04:38:49.927Z,22.42
2023-03-04T04:41:28.610Z,22.48
2023-03-04T04:43:55.470Z,23.60
2023-03-04T04:46:22.374Z,23.00
2023-03-04T04:48:49.563Z,22.73
2023-03-04T04:51:16.365Z,23.95
2023-03-04T04:53:43.343Z,25.23
2023-03-04T04:56:16.426Z,23.67
2023-03-04T04:58:44.069Z,23.27
2023-03-04T05:01:10.794Z,23.60
2023-03-04T05:03:38.106Z,24.45
2023-03-04T05:06:07.415Z,24.08
2023-03-04T05:08:35.123Z,22.15
2023-03-04T05:11:02.474Z,23.10
2023-03-04T05:13:29.281Z,22.15
2023-03-04T05:15:57.221Z,22.88
2023-03-04T05:18:25.427Z,23.23
2023-03-04T05:20:57.861Z,22.80
2023-03-04T05:23:25.705Z,21.67
2023-03-04T05:25:52.995Z,21.23
2023-03-04T05:28:19.965Z,23.60
2023-03-04T05:30:46.951Z,22.52
2023-03-04T05:33:15.476Z,23.08
2023-03-04T05:35:43.210Z,22.73
2023-03-04T05:38:13.027Z,23.50
2023-03-04T05:40:41.322Z,21.90
2023-03-04T05:43:08.470Z,22.15
2023-03-04T05:45:35.503Z,22.65
2023-03-04T05:48:03.149Z,22.52
2023-03-04T05:50:30.315Z,23.05
2023-03-04T05:52:57.096Z,21.95
2023-03-04T05:55:24.197Z,23.42
2023-03-04T05:57:51.230Z,22.73
2023-03-04T06:00:18.190Z,22.05
2023-03-04T06:02:45.492Z,23.33
2023-03-04T06:05:14.150Z,23.33
2023-03-04T06:07:43.148Z,22.15
2023-03-04T06:10:10.783Z,23.98
2023-03-04T06:12:37.578Z,24.33
2023-03-04T06:15:06.018Z,23.58
2023-03-04T06:17:32.966Z,23.63
2023-03-04T06:19:59.676Z,24.02
2023-03-04T06:22:26.448Z,24.05
2023-03-04T06:24:53.207Z,24.40
2023-03-04T06:27:20.052Z,24.10
2023-03-04T06:29:46.771Z,24.48
2023-03-04T06:32:13.453Z,23.67
2023-03-04T06:34:40.343Z,23.40
2023-03-04T06:37:06.989Z,22.70
2023-03-04T06:39:33.752Z,23.05
2023-03-04T06:42:00.724Z,23.30
2023-03-04T06:44:27.419Z,22.30
2023-03-04T06:46:54.167Z,23.40
2023-03-04T06:49:20.904Z,23.48
2023-03-04T06:51:47.686Z,24.85
2023-03-04T06:54:14.466Z,24.63
2023-03-04T06:56:41.190Z,22.98
2023-03-04T06:59:07.915Z,24.40
2023-03-04T07:01:35.095Z,23.08
2023-03-04T07:04:02.639Z,24.30
2023-03-04T07:06:30.385Z,23.92
2023-03-04T07:08:58.153Z,24.52
2023-03-04T07:11:25.295Z,24.67
2023-03-04T07:13:52.124Z,23.70
2023-03-04T07:16:21.749Z,24.73
2023-03-04T07:18:48.718Z,23.92
2023-03-04T07:21:16.638Z,25.20
2023-03-04T07:23:43.988Z,24.20
2023-03-04T07:26:10.922Z,24.20
2023-03-04T07:28:37.966Z,24.45
2023-03-04T07:31:13.964Z,23.23
2023-03-04T07:33:40.855Z,25.45
2023-03-04T07:36:07.717Z,24.50
2023-03-04T07:38:34.576Z,23.45
2023-03-04T07:41:01.283Z,24.63
2023-03-04T07:43:28.251Z,24.50
2023-03-04T07:46:01.169Z,24.83
2023-03-04T07:48:28.378Z,24.73
2023-03-04T07:51:04.343Z,24.95
2023-03-04T07:53:32.439Z,25.17
2023-03-04T07:56:01.037Z,24.80
2023-03-04T07:58:29.464Z,24.83
2023-03-04T08:00:56.266Z,23.20
2023-03-04T08:03:23.308Z,24.92
2023-03-04T08:05:50.484Z,24.88
2023-03-04T08:08:17.954Z,24.17
2023-03-04T08:10:45.221Z,23.67
2023-03-04T08:13:12.042Z,25.63
2023-03-04T08:15:42.896Z,26.42
2023-03-04T08:18:09.709Z,23.90
2023-03-04T08:20:36.494Z,25.90
2023-03-04T08:23:03.503Z,24.45
2023-03-04T08:25:30.193Z,24.98
2023-03-04T08:27:56.928Z,24.95
2023-03-04T08:30:23.706Z,26.20
2023-03-04T08:32:50.504Z,25.58
2023-03-04T08:35:17.557Z,26.00
2023-03-04T08:37:45.074Z,25.17
2023-03-04T08:40:14.561Z,24.65
2023-03-04T08:42:42.231Z,26.40
2023-03-04T08:45:10.125Z,25.75
2023-03-04T08:47:37.784Z,25.15
2023-03-04T08:50:06.142Z,26.80
2023-03-04T08:52:33.060Z,25.33
2023-03-04T08:54:59.755Z,26.60
2023-03-04T08:57:26.574Z,24.98
2023-03-04T08:59:53.334Z,26.60
2023-03-04T09:02:20.292Z,26.70
2023-03-04T09:04:47.093Z,26.73
2023-03-04T09:07:14.267Z,26.98
2023-03-04T09:09:41.164Z,27.65
2023-03-04T09:12:08.485Z,28.35
2023-03-04T09:14:35.921Z,28.10
2023-03-04T09:17:06.249Z,28.90
2023-03-04T09:19:33.124Z,29.92
2023-03-04T09:21:59.873Z,29.75
2023-03-04T09:24:26.714Z,29.02
2023-03-04T09:26:54.041Z,28.02
2023-03-04T09:29:21.234Z,29.63
2023-03-04T09:31:48.068Z,27.75
2023-03-04T09:34:14.890Z,29.15
2023-03-04T09:36:41.614Z,30.13
2023-03-04T09:39:08.496Z,29.25
2023-03-04T09:42:06.389Z,29.58
2023-03-04T09:44:43.188Z,29.75
2023-03-04T09:47:19.951Z,28.48
2023-03-04T09:49:57.525Z,30.15
2023-03-04T09:53:03.493Z,29.95
2023-03-04T09:55:33.027Z,29.17
2023-03-04T09:58:22.335Z,29.85
2023-03-04T10:00:58.322Z,31.35
2023-03-04T10:03:33.111Z,31.83
2023-03-04T10:06:07.273Z,29.87
2023-03-04T10:08:56.289Z,31.98
2023-03-04T10:11:44.960Z,30.42
2023-03-04T10:14:14.511Z,31.20
2023-03-04T10:16:51.648Z,32.42
2023-03-04T10:19:35.266Z,31.90
2023-03-04T10:22:03.702Z,31.48
2023-03-04T10:24:33.404Z,30.52
2023-03-04T10:27:07.371Z,30.25
2023-03-04T10:29:34.664Z,29.48
2023-03-04T10:32:01.592Z,29.95
2023-03-04T10:34:28.512Z,31.00
2023-03-04T10:36:55.406Z,31.23
2023-03-04T10:39:37.173Z,28.95
2023-03-04T10:42:07.348Z,30.95
2023-03-04T10:44:38.057Z,31.45
2023-03-04T10:47:10.683Z,31.65
2023-03-04T10:49:52.339Z,30.10
2023-03-04T10:52:27.909Z,32.28
2023-03-04T10:57:34.023Z,30.85
2023-03-04T11:00:26.260Z,30.75
2023-03-04T11:02:53.085Z,30.63
2023-03-04T11:05:25.642Z,32.22
2023-03-04T11:07:56.971Z,30.50
2023-03-04T11:10:30.297Z,30.42
2023-03-04T11:13:03.597Z,30.63
2023-03-04T11:16:18.435Z,30.15
2023-03-04T11:18:52.326Z,30.65
2023-03-04T11:21:24.453Z,29.67
2023-03-04T11:23:57.217Z,29.63
2023-03-04T11:26:33.951Z,29.08
2023-03-04T11:29:18.178Z,29.83
2023-03-04T11:32:01.023Z,30.63
2023-03-04T11:34:37.170Z,29.52
2023-03-04T11:37:09.951Z,30.15
2023-03-04T11:39:41.683Z,29.67
2023-03-04T11:42:46.071Z,28.65
2023-03-04T11:45:27.825Z,27.25
2023-03-04T11:48:29.586Z,28.05
2023-03-04T11:51:35.280Z,28.58
2023-03-04T11:54:30.432Z,29.65
2023-03-04T11:57:23.033Z,27.27
2023-03-04T12:00:18.320Z,28.30
2023-03-04T12:03:16.079Z,28.70
2023-03-04T12:06:18.380Z,26.88
2023-03-04T12:08:51.057Z,27.92
2023-03-04T12:11:56.450Z,24.88
2023-03-04T12:14:29.718Z,25.17
2023-03-04T12:17:23.948Z,26.60
2023-03-04T12:20:16.881Z,24.55
2023-03-04T12:22:57.652Z,23.55
2023-03-04T12:25:33.807Z,23.55
2023-03-04T12:28:27.610Z,22.90
2023-03-04T12:31:22.466Z,23.30
2023-03-04T12:34:01.395Z,24.55
2023-03-04T12:36:43.147Z,22.05
2023-03-04T12:39:31.206Z,23.52
2023-03-04T12:42:16.335Z,24.67
2023-03-04T12:45:23.364Z,23.85
2023-03-04T12:48:08.907Z,22.95
2023-03-04T12:50:53.604Z,22.08
2023-03-04T12:53:39.276Z,20.25
2023-03-04T12:56:09.970Z,21.48
2023-03-04T12:58:37.537Z,21.63
2023-03-04T13:01:24.776Z,22.50
2023-03-04T13:03:51.579Z,21.65
2023-03-04T13:06:43.385Z,20.00
2023-03-04T13:09:23.060Z,21.83
2023-03-04T13:11:49.808Z,21.38
2023-03-04T13:14:18.171Z,19.58
2023-03-04T13:16:49.150Z,19.95
2023-03-04T13:19:57.085Z,18.92
2023-03-04T13:22:27.927Z,19.45
2023-03-04T13:24:56.286Z,18.85
2023-03-04T13:27:50.083Z,19.30
2023-03-04T13:30:32.104Z,19.02
2023-03-04T13:33:19.116Z,17.48
2023-03-04T13:35:55.034Z,19.98
2023-03-04T13:38:41.466Z,18.63
2023-03-04T13:41:14.076Z,20.45
2023-03-04T13:43:45.559Z,17.63
2023-03-04T13:46:23.480Z,18.27
2023-03-04T13:48:50.234Z,19.83
2023-03-04T13:51:29.770Z,18.75
2023-03-04T13:54:00.309Z,18.58
2023-03-04T13:56:37.624Z,19.30
2023-03-04T13:59:07.496Z,19.23
2023-03-04T14:01:52.627Z,19.58
2023-03-04T14:04:21.530Z,18.77
2023-03-04T14:06:54.072Z,18.63
2023-03-04T14:09:39.035Z,18.52
2023-03-04T14:12:15.454Z,18.10
2023-03-04T14:14:44.766Z,17.58
2023-03-04T14:17:22.053Z,17.40
2023-03-04T14:19:52.059Z,18.83
2023-03-04T14:22:29.845Z,17.23
2023-03-04T14:25:02.778Z,16.50
2023-03-04T14:27:32.993Z,15.70
2023-03-04T14:30:02.008Z,15.50
2023-03-04T14:32:29.964Z,16.85
2023-03-04T14:35:02.517Z,17.73
2023-03-04T14:37:58.150Z,18.23
2023-03-04T14:40:29.215Z,16.88
2023-03-04T14:43:09.202Z,18.20
2023-03-04T14:45:36.089Z,18.45
2023-03-04T14:48:06.690Z,17.80
2023-03-04T14:50:35.705Z,18.23
2023-03-04T14:53:17.734Z,17.88
2023-03-04T14:55:59.532Z,17.52
2023-03-04T14:58:32.675Z,18.55
2023-03-04T15:01:18.993Z,17.33
2023-03-04T15:04:02.738Z,18.10
2023-03-04T15:06:32.277Z,16.90
2023-03-04T15:09:08.764Z,17.77
2023-03-04T15:11:49.037Z,17.40
2023-03-04T15:14:41.598Z,16.52
2023-03-04T15:17:42.655Z,17.15
2023-03-04T15:20:09.355Z,16.85
2023-03-04T15:22:56.545Z,17.10
2023-03-04T15:25:23.534Z,17.23
2023-03-04T15:27:51.121Z,14.93
2023-03-04T15:30:18.274Z,16.92
2023-03-04T15:32:44.938Z,16.05
2023-03-04T15:35:16.184Z,15.25
2023-03-04T15:37:44.187Z,17.30
2023-03-04T15:40:33.872Z,17.60
2023-03-04T15:43:03.358Z,16.88
2023-03-04T15:45:38.491Z,15.45
2023-03-04T15:48:13.790Z,16.67
2023-03-04T15:51:01.533Z,17.23
2023-03-04T15:53:39.669Z,16.73
2023-03-04T15:56:11.830Z,15.40
2023-03-04T15:58:39.446Z,15.85
2023-03-04T16:01:06.260Z,15.32
2023-03-04T16:03:32.929Z,15.30
2023-03-04T16:05:59.879Z,16.50
2023-03-04T16:08:26.856Z,16.52
2023-03-04T16:10:54.659Z,15.43
2023-03-04T16:13:23.846Z,15.32
2023-03-04T16:15:50.738Z,15.05
2023-03-04T16:18:17.900Z,15.93
2023-03-04T16:20:49.845Z,15.63
2023-03-04T16:23:24.527Z,15.63
2023-03-04T16:25:55.470Z,15.83
2023-03-04T16:28:22.623Z,15.85
2023-03-04T16:30:49.834Z,15.82
2023-03-04T16:33:16.554Z,16.98
2023-03-04T16:35:45.008Z,16.73
2023-03-04T16:38:22.251Z,16.98
2023-03-04T16:40:49.563Z,16.10
2023-03-04T16:43:16.281Z,17.42
2023-03-04T16:45:43.130Z,15.65
2023-03-04T16:48:10.124Z,16.67
2023-03-04T16:50:37.870Z,16.55
2023-03-04T16:53:05.655Z,15.90
2023-03-04T16:55:32.843Z,16.23
2023-03-04T16:57:59.606Z,15.63
2023-03-04T17:00:28.953Z,15.10
2023-03-04T17:02:58.395Z,15.00
2023-03-04T17:05:28.472Z,15.52
2023-03-04T17:07:55.451Z,14.77
2023-03-04T17:10:23.603Z,14.88
2023-03-04T17:12:52.006Z,16.15
2023-03-04T17:15:19.320Z,15.65
2023-03-04T17:17:46.264Z,17.02
2023-03-04T17:20:17.837Z,16.15
2023-03-04T17:22:45.323Z,16.85
2023-03-04T17:25:12.678Z,15.07
2023-03-04T17:27:39.513Z,15.10
2023-03-04T17:30:08.953Z,16.83
2023-03-04T17:32:38.968Z,16.45
2023-03-04T17:35:08.039Z,16.70
2023-03-04T17:37:35.551Z,16.58
2023-03-04T17:40:08.631Z,15.75
2023-03-04T17:42:35.517Z,16.35
2023-03-04T17:45:02.334Z,16.08
2023-03-04T17:47:29.131Z,15.77
2023-03-04T17:49:55.800Z,16.27
2023-03-04T17:52:22.545Z,16.27
2023-03-04T17:54:49.362Z,15.82
2023-03-04T17:57:16.170Z,15.27
2023-03-04T17:59:42.922Z,16.67
2023-03-04T18:02:15.069Z,17.38
2023-03-04T18:04:42.732Z,16.27
2023-03-04T18:07:09.526Z,15.77
2023-03-04T18:09:36.262Z,17.15
2023-03-04T18:12:03.099Z,17.35
2023-03-04T18:14:29.913Z,18.38
2023-03-04T18:16:56.753Z,17.30
2023-03-04T18:19:23.553Z,17.20
2023-03-04T18:21:50.404Z,17.67
2023-03-04T18:24:17.154Z,16.55
2023-03-04T18:26:43.959Z,17.55
2023-03-04T18:29:10.813Z,16.20
2023-03-04T18:31:37.671Z,17.77
2023-03-04T18:34:05.070Z,18.67
2023-03-04T18:36:32.637Z,18.63
2023-03-04T18:38:59.740Z,18.15
2023-03-04T18:41:27.859Z,19.33
2023-03-04T18:43:55.360Z,17.83
2023-03-04T18:46:53.498Z,19.45
2023-03-04T18:49:21.080Z,18.52
2023-03-04T18:51:47.856Z,19.80
2023-03-04T18:54:14.682Z,17.95
2023-03-04T18:56:48.225Z,20.35
2023-03-04T18:59:22.921Z,19.38
2023-03-04T19:01:51.872Z,20.47
2023-03-04T19:04:21.509Z,20.52
2023-03-04T19:06:48.409Z,19.80
2023-03-04T19:09:15.256Z,19.83
2023-03-04T19:11:41.956Z,19.73
2023-03-04T19:14:08.853Z,19.50
2023-03-04T19:16:35.792Z,19.35
2023-03-04T19:19:02.609Z,20.15
2023-03-04T19:21:29.272Z,19.88
2023-03-04T19:23:56.059Z,19.92
2023-03-04T19:26:22.763Z,20.23
2023-03-04T19:28:49.721Z,20.38
2023-03-04T19:31:16.578Z,19.63
2023-03-04T19:33:43.312Z,21.90
2023-03-04T19:36:10.407Z,19.85
2023-03-04T19:38:37.624Z,20.77
2023-03-04T19:41:15.752Z,20.58
2023-03-04T19:43:42.897Z,20.98
2023-03-04T19:46:10.610Z,19.85
2023-03-04T19:48:39.116Z,20.70
2023-03-04T19:51:20.977Z,20.52
2023-03-04T19:53:47.951Z,20.25
2023-03-04T19:56:14.633Z,22.42
2023-03-04T19:58:41.418Z,20.27
2023-03-04T20:01:20.351Z,21.35
2023-03-04T20:03:47.145Z,20.88
2023-03-04T20:06:13.839Z,22.38
2023-03-04T20:08:40.512Z,22.38
2023-03-04T20:11:11.466Z,22.00
2023-03-04T20:13:38.146Z,22.70
2023-03-04T20:16:09.713Z,22.10
2023-03-04T20:18:37.425Z,21.75
2023-03-04T20:21:04.386Z,20.17
2023-03-04T20:23:31.141Z,22.05
2023-03-04T20:25:58.005Z,21.75
2023-03-04T20:28:25.889Z,23.02
2023-03-04T20:30:53.654Z,22.45
2023-03-04T20:33:20.774Z,22.77
2023-03-04T20:35:47.605Z,22.83
2023-03-04T20:38:15.032Z,23.38
2023-03-04T20:40:42.433Z,21.88
2023-03-04T20:43:09.212Z,23.88
2023-03-04T20:45:38.888Z,23.20
2023-03-04T20:48:05.849Z,23.33
2023-03-04T20:50:32.529Z,21.75
2023-03-04T20:52:59.225Z,21.13
2023-03-04T20:55:27.995Z,23.02
2023-03-04T20:57:54.926Z,23.42
2023-03-04T21:00:22.113Z,23.10
2023-03-04T21:02:48.913Z,23.27
2023-03-04T21:05:15.694Z,22.20
2023-03-04T21:07:43.360Z,21.42
2023-03-04T21:10:10.588Z,21.63
2023-03-04T21:12:37.361Z,23.70
2023-03-04T21:15:04.863Z,23.05
2023-03-04T21:17:31.524Z,21.85
2023-03-04T21:19:58.180Z,23.23
2023-03-04T21:22:26.851Z,23.70
2023-03-04T21:24:53.913Z,23.17
2023-03-04T21:27:20.661Z,22.30
2023-03-04T21:29:49.327Z,23.67
2023-03-04T21:32:26.891Z,24.65
2023-03-04T21:34:55.080Z,22.83
2023-03-04T21:37:23.974Z,21.17
2023-03-04T21:39:51.162Z,23.42
2023-03-04T21:42:18.154Z,22.50
2023-03-04T21:44:49.659Z,22.98
2023-03-04T21:47:17.280Z,24.35
2023-03-04T21:49:44.047Z,24.08
2023-03-04T21:52:10.878Z,22.00
2023-03-04T21:54:37.705Z,23.95
2023-03-04T21:57:04.414Z,22.17
2023-03-04T21:59:31.106Z,23.67
2023-03-04T22:01:57.981Z,25.05
2023-03-04T22:04:24.739Z,25.42
2023-03-04T22:06:51.447Z,24.75
2023-03-04T22:09:18.222Z,24.60
2023-03-04T22:11:45.021Z,27.48
2023-03-04T22:14:11.849Z,26.60
2023-03-04T22:16:48.920Z,26.45
2023-03-04T22:19:21.499Z,25.35
2023-03-04T22:21:48.256Z,27.08
2023-03-04T22:24:14.881Z,25.45
2023-03-04T22:26:41.651Z,25.50
2023-03-04T22:29:08.426Z,26.80
2023-03-04T22:31:36.824Z,27.27
2023-03-04T22:34:12.374Z,25.63
2023-03-04T22:36:44.757Z,25.90
2023-03-04T22:39:14.188Z,26.40
2023-03-04T22:41:41.504Z,26.13
2023-03-04T22:44:08.523Z,25.40
2023-03-04T22:46:38.260Z,26.13
2023-03-04T22:49:11.277Z,28.33
2023-03-04T22:51:41.435Z,25.23
2023-03-04T22:54:13.076Z,27.48
2023-03-04T22:56:39.885Z,26.35
2023-03-04T22:59:06.718Z,25.45
2023-03-04T23:01:33.836Z,26.95
2023-03-04T23:04:00.758Z,25.35
2023-03-04T23:06:30.217Z,26.75
2023-03-04T23:08:58.663Z,25.95
2023-03-04T23:11:27.883Z,26.73
2023-03-04T23:13:55.591Z,28.70
2023-03-04T23:16:23.390Z,28.05
2023-03-04T23:18:50.741Z,29.20
2023-03-04T23:21:25.034Z,28.42
2023-03-04T23:23:52.515Z,27.65
2023-03-04T23:26:25.350Z,29.77
2023-03-04T23:28:52.513Z,27.08
2023-03-04T23:31:19.459Z,28.77
2023-03-04T23:33:48.008Z,27.00
2023-03-04T23:36:18.593Z,29.00
2023-03-04T23:38:48.283Z,29.88
2023-03-04T23:41:20.688Z,29.83
2023-03-04T23:43:48.191Z,28.20
2023-03-04T23:46:15.419Z,29.38
2023-03-04T23:48:45.725Z,29.25
2023-03-04T23:51:18.641Z,28.30
2023-03-04T23:53:45.736Z,29.88
2023-03-04T23:56:20.963Z,30.35
2023-03-04T23:58:48.056Z,29.35
